F/V Matmaco — FVNS — position and weather

sailwx.info

Track history (hours):
 
Tides and Currents Weather Stations Pressure Air Temp Water Temp Dewpoint Dewpoint Depression Visibility Wind Speed Wind Dir Waves Ship Positions

F/V Matmaco

Last reported at 2017-Oct-22 02:42 UTC. Time now 2017-Oct-22 10:05 UTC.
Position N 47°13' W 002°40'.

Length 20 m.

Type: Other ship. MMSI: 228194000.

Date/timePositionNaut miles runAvg speedWind from/ knotsBaromVisibWave heightAir tempDewpointWater temp
2017-Oct-22 02:42N 47°13' W 002°40'2 7.3
2017-Oct-22 02:22N 47°15' W 002°37'3 7.8
2017-Oct-22 02:00N 47°17' W 002°35'3 6.3
2017-Oct-22 01:31N 47°19' W 002°31'1 1.6
2017-Oct-22 00:59N 47°18' W 002°31'0 0.0
2017-Oct-22 00:30N 47°18' W 002°31'  
2017-Oct-19 05:14N 47°18' W 002°31'0 0.0
2017-Oct-19 05:00N 47°18' W 002°31'0 0.0
2017-Oct-19 04:29N 47°18' W 002°31'0 0.0
2017-Oct-19 03:59N 47°18' W 002°31'0 0.0
2017-Oct-19 03:30N 47°18' W 002°31'0 0.2
2017-Oct-19 02:57N 47°18' W 002°31'0 0.1
2017-Oct-19 02:30N 47°18' W 002°31'0 0.0
2017-Oct-19 02:00N 47°18' W 002°31'0 0.0
2017-Oct-19 01:30N 47°18' W 002°31'2 4.6
2017-Oct-19 01:00N 47°18' W 002°34'5 9.0
2017-Oct-19 00:29N 47°14' W 002°35'5 9.2
2017-Oct-18 23:59N 47°09' W 002°35'6 5.3
2017-Oct-18 22:52N 47°04' W 002°39'2 4.2
2017-Oct-18 22:27N 47°03' W 002°41'2 4.2
2017-Oct-18 22:00N 47°01' W 002°42'23 1.8
2017-Oct-18 09:20N 46°41' W 002°57'1 3.5
2017-Oct-18 09:00N 46°42' W 002°57'7 2.8
2017-Oct-18 06:31N 46°44' W 003°07'0 3.7
2017-Oct-18 06:29N 46°44' W 003°07'2 3.6
2017-Oct-18 05:59N 46°43' W 003°04'8 1.8
2017-Oct-18 01:26N 46°36' W 003°02'8 0.4
2017-Oct-17 06:48N 46°43' W 002°57'1 3.9
2017-Oct-17 06:30N 46°42' W 002°56'2 3.8
2017-Oct-17 06:00N 46°41' W 002°55'4 1.4
2017-Oct-17 02:51N 46°44' W 002°59'1 2.6
2017-Oct-17 02:28N 46°44' W 002°58'1 0.4
2017-Oct-16 22:40N 46°43' W 002°57'1 3.2
2017-Oct-16 22:28N 46°43' W 002°57'26 1.9
2017-Oct-16 08:52N 46°52' W 003°33'26 5.7
2017-Oct-16 04:15N 46°51' W 002°54'2 7.9
2017-Oct-16 04:00N 46°53' W 002°53'5 8.2
2017-Oct-16 03:26N 46°57' W 002°50'4 8.0
2017-Oct-16 02:56N 47°00' W 002°48'3 8.1
2017-Oct-16 02:30N 47°04' W 002°45'5 7.9
2017-Oct-16 01:49N 47°08' W 002°42'3 8.0
2017-Oct-16 01:27N 47°11' W 002°40'4 8.2
2017-Oct-16 01:00N 47°14' W 002°37'4 7.5
2017-Oct-16 00:30N 47°18' W 002°35'3 5.1
2017-Oct-16 00:00N 47°18' W 002°31'1 1.3
2017-Oct-15 23:27N 47°18' W 002°31'0 0.0
2017-Oct-14 00:54N 47°18' W 002°31'0 0.0
2017-Oct-14 00:30N 47°18' W 002°31'0 0.1
2017-Oct-14 00:00N 47°18' W 002°31'0 0.0
2017-Oct-13 23:30N 47°18' W 002°31'2 3.8
2017-Oct-13 23:00N 47°19' W 002°33'4 8.9
2017-Oct-13 22:31N 47°15' W 002°37'5 9.1
2017-Oct-13 22:01N 47°13' W 002°42'5 9.2
2017-Oct-13 21:30N 47°10' W 002°48'5 9.3
2017-Oct-13 20:57N 47°08' W 002°55'4 9.2
2017-Oct-13 20:31N 47°06' W 003°00'5 9.0
2017-Oct-13 20:00N 47°03' W 003°06'4 9.0
2017-Oct-13 19:31N 47°01' W 003°11'5 9.2
2017-Oct-13 19:01N 46°59' W 003°17'2 4.9
2017-Oct-13 18:30N 46°58' W 003°21'2 3.7
2017-Oct-13 18:00N 46°57' W 003°23'2 3.7
2017-Oct-13 17:30N 46°57' W 003°26'2 3.6
2017-Oct-13 16:51N 46°56' W 003°29'2 3.5
2017-Oct-13 16:21N 46°56' W 003°32'1 3.5
2017-Oct-13 16:00N 46°56' W 003°34'2 2.9
2017-Oct-13 15:20N 46°57' W 003°35'1 2.5
2017-Oct-13 15:00N 46°57' W 003°34'2 1.5
2017-Oct-13 13:29N 46°59' W 003°36'2 3.0
2017-Oct-13 12:57N 46°57' W 003°35'2 3.5
2017-Oct-13 12:28N 46°56' W 003°34'2 3.5
2017-Oct-13 11:58N 46°54' W 003°35'3 1.2
2017-Oct-13 09:37N 46°56' W 003°37'0 3.5
2017-Oct-13 09:29N 46°56' W 003°36'2 3.2
2017-Oct-13 09:00N 46°55' W 003°34'2 3.6
2017-Oct-13 08:30N 46°54' W 003°35'8 1.4
2017-Oct-13 02:36N 46°57' W 003°24'0 3.8
2017-Oct-13 02:29N 46°57' W 003°23'2 2.0
2017-Oct-13 01:19N 46°57' W 003°27'2 3.0
2017-Oct-13 00:41N 46°55' W 003°27'1 3.5
2017-Oct-13 00:30N 46°54' W 003°27'2 3.5
2017-Oct-13 00:00N 46°52' W 003°27'8 0.9
2017-Oct-12 15:24N 46°58' W 003°19'2 3.6
2017-Oct-12 14:53N 46°56' W 003°18'1 3.6
2017-Oct-12 14:29N 46°55' W 003°18'3 0.4
2017-Oct-12 05:27N 46°53' W 003°22'1 3.1
2017-Oct-12 04:58N 46°53' W 003°20'1 3.0
2017-Oct-12 04:30N 46°53' W 003°18'2 3.5
2017-Oct-12 04:00N 46°54' W 003°16'6 8.3
2017-Oct-12 03:16N 46°58' W 003°09'2 8.3
2017-Oct-12 02:58N 46°60' W 003°06'  
Track history (hours):
 
Tides and Currents Weather Stations Pressure Air Temp Water Temp Dewpoint Dewpoint Depression Visibility Wind Speed Wind Dir Waves Ship Positions

F/V Matmaco

Last reported at 2017-Oct-22 02:42 UTC. Time now 2017-Oct-22 10:05 UTC.
Position N 47°13' W 002°40'.

Length 20 m.

Type: Other ship. MMSI: 228194000.

Date/timePositionNaut miles runAvg speedWind from/ knotsBaromVisibWave heightAir tempDewpointWater temp
2017-Oct-22 02:42N 47°13' W 002°40'2 7.3
2017-Oct-22 02:22N 47°15' W 002°37'3 7.8
2017-Oct-22 02:00N 47°17' W 002°35'3 6.3
2017-Oct-22 01:31N 47°19' W 002°31'1 1.6
2017-Oct-22 00:59N 47°18' W 002°31'0 0.0
2017-Oct-22 00:30N 47°18' W 002°31'  
2017-Oct-19 05:14N 47°18' W 002°31'0 0.0
2017-Oct-19 05:00N 47°18' W 002°31'0 0.0
2017-Oct-19 04:29N 47°18' W 002°31'0 0.0
2017-Oct-19 03:59N 47°18' W 002°31'0 0.0
2017-Oct-19 03:30N 47°18' W 002°31'0 0.2
2017-Oct-19 02:57N 47°18' W 002°31'0 0.1
2017-Oct-19 02:30N 47°18' W 002°31'0 0.0
2017-Oct-19 02:00N 47°18' W 002°31'0 0.0
2017-Oct-19 01:30N 47°18' W 002°31'2 4.6
2017-Oct-19 01:00N 47°18' W 002°34'5 9.0
2017-Oct-19 00:29N 47°14' W 002°35'5 9.2
2017-Oct-18 23:59N 47°09' W 002°35'6 5.3
2017-Oct-18 22:52N 47°04' W 002°39'2 4.2
2017-Oct-18 22:27N 47°03' W 002°41'2 4.2
2017-Oct-18 22:00N 47°01' W 002°42'23 1.8
2017-Oct-18 09:20N 46°41' W 002°57'1 3.5
2017-Oct-18 09:00N 46°42' W 002°57'7 2.8
2017-Oct-18 06:31N 46°44' W 003°07'0 3.7
2017-Oct-18 06:29N 46°44' W 003°07'2 3.6
2017-Oct-18 05:59N 46°43' W 003°04'8 1.8
2017-Oct-18 01:26N 46°36' W 003°02'8 0.4
2017-Oct-17 06:48N 46°43' W 002°57'1 3.9
2017-Oct-17 06:30N 46°42' W 002°56'2 3.8
2017-Oct-17 06:00N 46°41' W 002°55'4 1.4
2017-Oct-17 02:51N 46°44' W 002°59'1 2.6
2017-Oct-17 02:28N 46°44' W 002°58'1 0.4
2017-Oct-16 22:40N 46°43' W 002°57'1 3.2
2017-Oct-16 22:28N 46°43' W 002°57'26 1.9
2017-Oct-16 08:52N 46°52' W 003°33'26 5.7
2017-Oct-16 04:15N 46°51' W 002°54'2 7.9
2017-Oct-16 04:00N 46°53' W 002°53'5 8.2
2017-Oct-16 03:26N 46°57' W 002°50'4 8.0
2017-Oct-16 02:56N 47°00' W 002°48'3 8.1
2017-Oct-16 02:30N 47°04' W 002°45'5 7.9
2017-Oct-16 01:49N 47°08' W 002°42'3 8.0
2017-Oct-16 01:27N 47°11' W 002°40'4 8.2
2017-Oct-16 01:00N 47°14' W 002°37'4 7.5
2017-Oct-16 00:30N 47°18' W 002°35'3 5.1
2017-Oct-16 00:00N 47°18' W 002°31'1 1.3
2017-Oct-15 23:27N 47°18' W 002°31'0 0.0
2017-Oct-14 00:54N 47°18' W 002°31'0 0.0
2017-Oct-14 00:30N 47°18' W 002°31'0 0.1
2017-Oct-14 00:00N 47°18' W 002°31'0 0.0
2017-Oct-13 23:30N 47°18' W 002°31'2 3.8
2017-Oct-13 23:00N 47°19' W 002°33'4 8.9
2017-Oct-13 22:31N 47°15' W 002°37'5 9.1
2017-Oct-13 22:01N 47°13' W 002°42'5 9.2
2017-Oct-13 21:30N 47°10' W 002°48'5 9.3
2017-Oct-13 20:57N 47°08' W 002°55'4 9.2
2017-Oct-13 20:31N 47°06' W 003°00'5 9.0
2017-Oct-13 20:00N 47°03' W 003°06'4 9.0
2017-Oct-13 19:31N 47°01' W 003°11'5 9.2
2017-Oct-13 19:01N 46°59' W 003°17'2 4.9
2017-Oct-13 18:30N 46°58' W 003°21'2 3.7
2017-Oct-13 18:00N 46°57' W 003°23'2 3.7
2017-Oct-13 17:30N 46°57' W 003°26'2 3.6
2017-Oct-13 16:51N 46°56' W 003°29'2 3.5
2017-Oct-13 16:21N 46°56' W 003°32'1 3.5
2017-Oct-13 16:00N 46°56' W 003°34'2 2.9
2017-Oct-13 15:20N 46°57' W 003°35'1 2.5
2017-Oct-13 15:00N 46°57' W 003°34'2 1.5
2017-Oct-13 13:29N 46°59' W 003°36'2 3.0
2017-Oct-13 12:57N 46°57' W 003°35'2 3.5
2017-Oct-13 12:28N 46°56' W 003°34'2 3.5
2017-Oct-13 11:58N 46°54' W 003°35'3 1.2
2017-Oct-13 09:37N 46°56' W 003°37'0 3.5
2017-Oct-13 09:29N 46°56' W 003°36'2 3.2
2017-Oct-13 09:00N 46°55' W 003°34'2 3.6
2017-Oct-13 08:30N 46°54' W 003°35'8 1.4
2017-Oct-13 02:36N 46°57' W 003°24'0 3.8
2017-Oct-13 02:29N 46°57' W 003°23'2 2.0
2017-Oct-13 01:19N 46°57' W 003°27'2 3.0
2017-Oct-13 00:41N 46°55' W 003°27'1 3.5
2017-Oct-13 00:30N 46°54' W 003°27'2 3.5
2017-Oct-13 00:00N 46°52' W 003°27'8 0.9
2017-Oct-12 15:24N 46°58' W 003°19'2 3.6
2017-Oct-12 14:53N 46°56' W 003°18'1 3.6
2017-Oct-12 14:29N 46°55' W 003°18'3 0.4
2017-Oct-12 05:27N 46°53' W 003°22'1 3.1
2017-Oct-12 04:58N 46°53' W 003°20'1 3.0
2017-Oct-12 04:30N 46°53' W 003°18'2 3.5
2017-Oct-12 04:00N 46°54' W 003°16'6 8.3
2017-Oct-12 03:16N 46°58' W 003°09'2 8.3
2017-Oct-12 02:58N 46°60' W 003°06'  

Dump ship's entire track history